메인 페이지
METAR-TAF:

METAR-TAF

공항 :

파아아 국제공항

타히티, 프랑스령 폴리네시아

위도: 17-33S, 경도: 149-37W, 고도: 2m

현재 날씨관측

예보는 11분 전, 16:30시(UTC)에 발표되었습니다.
여러 방향의 바람 1kt
온도 24°C
습도 83%
기압 1014 hPa
시정 10km 이상
고도 2000ft 상공 구름 조금
고도 4300ft 상공 구름 많음

METAR: NTAA 151630Z VRB01KT 9999 FEW020 BKN043 24/21 Q1014 NOSIG

시각: 06:41 (16:41 UTC)

예보

예보는 5 시간 41분 전, 11:00시(UTC)에 발표되었습니다.
예보 대상 시간: 15일 12시부터 16일 18시까지 (UTC)
여러 방향의 바람 5kt
시정 10km 이상
고도 2300ft 상공 구름 조금
고도 5000ft 상공 구름 보통
전환 중
15일 20시부터 15일 22시까지 (UTC)
12kt

TAF: NTAA 151100Z 1512/1618 VRB05KT 9999 FEW023 SCT050 BECMG 1520/1522 18012KT

4,000개 이상의 공항 관측 자료 및 예보 (METAR 및 TAF 보고).

지도상에서 검색 가능한 기상관측소가 노란 점과 빨간 점으로 표시되어 있습니다.

기상관측소 명을 보려면 표시 위로 마우스를 이동하세요.

날씨 관측과 예보를 보려면 클릭하세요.

지도 변경 : 확대하려면 엑스 표시가 있는 녹색 버튼, 축소하려면 빼기 표시가 있는 녹색 버튼, 다음 페이지의 지도를 보려면 녹색 화살표를 클릭하세요.


METAR-TAF: